sensor_id;sensor_type;location;lat;lon;timestamp;pressure;altitude;pressure_sealevel;temperature;humidity
23253;BME280;11795;47.054;15.408;2023-02-16T00:00:00;98500;;;-0.3;82.9
23253;BME280;11795;47.054;15.408;2023-02-16T00:02:00;98510;;;-0.4;83.4
23253;BME280;11795;47.054;15.408;2023-02-16T00:04:00;98500;;;-0.2;83.0
23253;BME280;11795;47.054;15.408;2023-02-16T00:06:00;98510;;;-0.3;83.2
23253;BME280;11795;47.054;15.408;2023-02-16T00:08:01;98510;;;-0.4;83.5
23253;BME280;11795;47.054;15.408;2023-02-16T00:10:00;98500;;;-0.3;83.1
23253;BME280;11795;47.054;15.408;2023-02-16T00:12:17;98500;;;-0.4;83.5
23253;BME280;11795;47.054;15.408;2023-02-16T00:14:01;98510;;;-0.2;82.9
23253;BME280;11795;47.054;15.408;2023-02-16T00:16:00;98510;;;-0.4;83.0
23253;BME280;11795;47.054;15.408;2023-02-16T00:18:02;98510;;;-0.5;83.1
23253;BME280;11795;47.054;15.408;2023-02-16T00:20:00;98500;;;-0.4;82.3
23253;BME280;11795;47.054;15.408;2023-02-16T00:22:00;98500;;;-0.6;82.8
23253;BME280;11795;47.054;15.408;2023-02-16T00:24:00;98500;;;-0.5;82.5
23253;BME280;11795;47.054;15.408;2023-02-16T00:26:00;98500;;;-0.6;82.8
23253;BME280;11795;47.054;15.408;2023-02-16T00:28:01;98510;;;-0.8;83.3
23253;BME280;11795;47.054;15.408;2023-02-16T00:30:00;98510;;;-0.8;84.4
23253;BME280;11795;47.054;15.408;2023-02-16T00:32:02;98510;;;-0.7;84.2
23253;BME280;11795;47.054;15.408;2023-02-16T00:34:25;98510;;;-0.5;84.2
23253;BME280;11795;47.054;15.408;2023-02-16T00:36:00;98520;;;-0.7;84.1
23253;BME280;11795;47.054;15.408;2023-02-16T00:38:00;98510;;;-0.7;84.0
23253;BME280;11795;47.054;15.408;2023-02-16T00:40:00;98510;;;-0.6;83.6
23253;BME280;11795;47.054;15.408;2023-02-16T00:42:02;98510;;;-0.8;83.8
23253;BME280;11795;47.054;15.408;2023-02-16T00:44:00;98510;;;-0.6;83.3
23253;BME280;11795;47.054;15.408;2023-02-16T00:46:00;98510;;;-0.9;83.6
23253;BME280;11795;47.054;15.408;2023-02-16T00:48:00;98500;;;-1.0;84.4
23253;BME280;11795;47.054;15.408;2023-02-16T00:50:00;98500;;;-0.8;84.0
23253;BME280;11795;47.054;15.408;2023-02-16T00:52:22;98500;;;-0.9;84.4
23253;BME280;11795;47.054;15.408;2023-02-16T00:54:00;98500;;;-0.7;84.0
23253;BME280;11795;47.054;15.408;2023-02-16T00:56:00;98500;;;-0.8;84.2
23253;BME280;11795;47.054;15.408;2023-02-16T00:58:04;98500;;;-0.9;84.4
23253;BME280;11795;47.054;15.408;2023-02-16T01:00:04;98500;;;-0.8;84.1
23253;BME280;11795;47.054;15.408;2023-02-16T01:02:00;98500;;;-0.9;84.7
23253;BME280;11795;47.054;15.408;2023-02-16T01:04:03;98500;;;-0.8;84.8
23253;BME280;11795;47.054;15.408;2023-02-16T01:06:10;98500;;;-1.0;85.4
23253;BME280;11795;47.054;15.408;2023-02-16T01:08:11;98500;;;-1.0;85.5
23253;BME280;11795;47.054;15.408;2023-02-16T01:10:10;98500;;;-0.9;85.0
23253;BME280;11795;47.054;15.408;2023-02-16T01:12:03;98500;;;-1.0;85.3
23253;BME280;11795;47.054;15.408;2023-02-16T01:14:00;98500;;;-0.9;84.7
23253;BME280;11795;47.054;15.408;2023-02-16T01:16:00;98500;;;-0.9;84.5
23253;BME280;11795;47.054;15.408;2023-02-16T01:18:00;98500;;;-1.0;84.6
23253;BME280;11795;47.054;15.408;2023-02-16T01:20:00;98500;;;-0.9;84.1
23253;BME280;11795;47.054;15.408;2023-02-16T01:22:00;98500;;;-1.1;84.5
23253;BME280;11795;47.054;15.408;2023-02-16T01:24:00;98500;;;-0.9;84.1
23253;BME280;11795;47.054;15.408;2023-02-16T01:26:00;98500;;;-1.1;84.3
23253;BME280;11795;47.054;15.408;2023-02-16T01:28:00;98500;;;-1.1;84.6
23253;BME280;11795;47.054;15.408;2023-02-16T01:30:00;98500;;;-1.0;84.1
23253;BME280;11795;47.054;15.408;2023-02-16T01:32:00;98490;;;-1.1;84.4
23253;BME280;11795;47.054;15.408;2023-02-16T01:34:00;98490;;;-0.9;84.0
23253;BME280;11795;47.054;15.408;2023-02-16T01:36:00;98490;;;-1.1;84.1
23253;BME280;11795;47.054;15.408;2023-02-16T01:38:00;98490;;;-1.1;84.5
23253;BME280;11795;47.054;15.408;2023-02-16T01:40:00;98490;;;-1.0;84.2
23253;BME280;11795;47.054;15.408;2023-02-16T01:42:11;98490;;;-1.1;84.4
23253;BME280;11795;47.054;15.408;2023-02-16T01:44:03;98490;;;-0.9;84.1
23253;BME280;11795;47.054;15.408;2023-02-16T01:46:04;98490;;;-1.1;84.4
23253;BME280;11795;47.054;15.408;2023-02-16T01:48:03;98500;;;-1.1;84.6
23253;BME280;11795;47.054;15.408;2023-02-16T01:50:11;98500;;;-1.0;84.2
23253;BME280;11795;47.054;15.408;2023-02-16T01:52:06;98490;;;-1.1;84.4
23253;BME280;11795;47.054;15.408;2023-02-16T01:54:07;98490;;;-0.9;84.0
23253;BME280;11795;47.054;15.408;2023-02-16T01:56:03;98490;;;-1.1;84.1
23253;BME280;11795;47.054;15.408;2023-02-16T01:58:03;98490;;;-1.2;84.4
23253;BME280;11795;47.054;15.408;2023-02-16T02:00:08;98490;;;-1.1;84.1
23253;BME280;11795;47.054;15.408;2023-02-16T02:02:01;98480;;;-1.2;84.4
23253;BME280;11795;47.054;15.408;2023-02-16T02:04:17;98480;;;-1.0;84.1
23253;BME280;11795;47.054;15.408;2023-02-16T02:06:00;98480;;;-1.2;84.4
23253;BME280;11795;47.054;15.408;2023-02-16T02:08:06;98470;;;-1.2;84.6
23253;BME280;11795;47.054;15.408;2023-02-16T02:10:05;98470;;;-1.1;84.4
23253;BME280;11795;47.054;15.408;2023-02-16T02:12:06;98470;;;-1.2;84.7
23253;BME280;11795;47.054;15.408;2023-02-16T02:14:05;98470;;;-1.0;84.5
23253;BME280;11795;47.054;15.408;2023-02-16T02:16:00;98470;;;-1.2;84.7
23253;BME280;11795;47.054;15.408;2023-02-16T02:18:00;98470;;;-1.2;85.0
23253;BME280;11795;47.054;15.408;2023-02-16T02:20:07;98470;;;-1.1;84.5
23253;BME280;11795;47.054;15.408;2023-02-16T02:22:24;98460;;;-1.2;84.8
23253;BME280;11795;47.054;15.408;2023-02-16T02:24:15;98470;;;-1.0;84.4
23253;BME280;11795;47.054;15.408;2023-02-16T02:26:17;98460;;;-1.2;84.5
23253;BME280;11795;47.054;15.408;2023-02-16T02:28:05;98460;;;-1.2;84.7
23253;BME280;11795;47.054;15.408;2023-02-16T02:30:11;98460;;;-1.1;84.2
23253;BME280;11795;47.054;15.408;2023-02-16T02:32:05;98460;;;-1.2;84.5
23253;BME280;11795;47.054;15.408;2023-02-16T02:34:06;98450;;;-1.0;84.3
23253;BME280;11795;47.054;15.408;2023-02-16T02:36:10;98450;;;-1.2;84.6
23253;BME280;11795;47.054;15.408;2023-02-16T02:38:05;98450;;;-1.2;84.9
23253;BME280;11795;47.054;15.408;2023-02-16T02:40:04;98450;;;-1.1;84.4
23253;BME280;11795;47.054;15.408;2023-02-16T02:42:09;98450;;;-1.2;84.7
23253;BME280;11795;47.054;15.408;2023-02-16T02:44:02;98450;;;-1.1;84.4
23253;BME280;11795;47.054;15.408;2023-02-16T02:46:06;98450;;;-1.2;84.4
23253;BME280;11795;47.054;15.408;2023-02-16T02:48:00;98450;;;-1.3;84.6
23253;BME280;11795;47.054;15.408;2023-02-16T02:50:00;98450;;;-1.2;84.2
23253;BME280;11795;47.054;15.408;2023-02-16T02:52:00;98450;;;-1.2;84.5
23253;BME280;11795;47.054;15.408;2023-02-16T02:54:12;98450;;;-1.1;84.1
23253;BME280;11795;47.054;15.408;2023-02-16T02:56:11;98450;;;-1.2;84.3
23253;BME280;11795;47.054;15.408;2023-02-16T02:58:11;98450;;;-1.3;84.6
23253;BME280;11795;47.054;15.408;2023-02-16T03:00:13;98450;;;-1.2;84.2
23253;BME280;11795;47.054;15.408;2023-02-16T03:02:01;98450;;;-1.2;84.5
23253;BME280;11795;47.054;15.408;2023-02-16T03:04:01;98440;;;-1.1;84.3
23253;BME280;11795;47.054;15.408;2023-02-16T03:06:02;98450;;;-1.2;84.4
23253;BME280;11795;47.054;15.408;2023-02-16T03:08:08;98450;;;-1.3;84.7
23253;BME280;11795;47.054;15.408;2023-02-16T03:10:10;98450;;;-1.2;84.4
23253;BME280;11795;47.054;15.408;2023-02-16T03:12:11;98450;;;-1.3;84.7
23253;BME280;11795;47.054;15.408;2023-02-16T03:14:03;98450;;;-1.1;84.4
23253;BME280;11795;47.054;15.408;2023-02-16T03:16:02;98450;;;-1.3;84.7
23253;BME280;11795;47.054;15.408;2023-02-16T03:18:11;98450;;;-1.3;85.0
23253;BME280;11795;47.054;15.408;2023-02-16T03:20:13;98440;;;-1.2;84.7
23253;BME280;11795;47.054;15.408;2023-02-16T03:22:10;98440;;;-1.3;85.0
23253;BME280;11795;47.054;15.408;2023-02-16T03:24:14;98440;;;-1.1;84.7
23253;BME280;11795;47.054;15.408;2023-02-16T03:26:10;98440;;;-1.3;84.9
23253;BME280;11795;47.054;15.408;2023-02-16T03:28:10;98440;;;-1.3;85.1
23253;BME280;11795;47.054;15.408;2023-02-16T03:30:00;98440;;;-1.2;84.6
23253;BME280;11795;47.054;15.408;2023-02-16T03:32:00;98440;;;-1.3;84.7
23253;BME280;11795;47.054;15.408;2023-02-16T03:34:00;98440;;;-1.2;84.2
23253;BME280;11795;47.054;15.408;2023-02-16T03:36:01;98440;;;-1.4;84.4
23253;BME280;11795;47.054;15.408;2023-02-16T03:38:00;98440;;;-1.5;84.4
23253;BME280;11795;47.054;15.408;2023-02-16T03:40:13;98440;;;-1.4;84.1
23253;BME280;11795;47.054;15.408;2023-02-16T03:42:00;98440;;;-1.4;84.1
23253;BME280;11795;47.054;15.408;2023-02-16T03:44:00;98440;;;-1.3;84.0
23253;BME280;11795;47.054;15.408;2023-02-16T03:46:00;98440;;;-1.5;84.3
23253;BME280;11795;47.054;15.408;2023-02-16T03:48:00;98440;;;-1.6;84.6
23253;BME280;11795;47.054;15.408;2023-02-16T03:50:00;98440;;;-1.5;84.2
23253;BME280;11795;47.054;15.408;2023-02-16T03:52:00;98440;;;-1.5;84.6
23253;BME280;11795;47.054;15.408;2023-02-16T03:54:00;98440;;;-1.4;84.2
23253;BME280;11795;47.054;15.408;2023-02-16T03:56:00;98440;;;-1.5;84.2
23253;BME280;11795;47.054;15.408;2023-02-16T03:58:00;98440;;;-1.6;84.6
23253;BME280;11795;47.054;15.408;2023-02-16T04:00:00;98440;;;-1.5;84.1
23253;BME280;11795;47.054;15.408;2023-02-16T04:02:00;98430;;;-1.6;84.5
23253;BME280;11795;47.054;15.408;2023-02-16T04:04:00;98440;;;-1.4;84.3
23253;BME280;11795;47.054;15.408;2023-02-16T04:06:00;98440;;;-1.6;84.5
23253;BME280;11795;47.054;15.408;2023-02-16T04:08:00;98430;;;-1.6;84.9
23253;BME280;11795;47.054;15.408;2023-02-16T04:10:00;98430;;;-1.5;84.5
23253;BME280;11795;47.054;15.408;2023-02-16T04:12:10;98430;;;-1.6;84.9
23253;BME280;11795;47.054;15.408;2023-02-16T04:14:00;98430;;;-1.4;84.6
23253;BME280;11795;47.054;15.408;2023-02-16T04:16:00;98420;;;-1.6;84.7
23253;BME280;11795;47.054;15.408;2023-02-16T04:18:00;98430;;;-1.6;84.9
23253;BME280;11795;47.054;15.408;2023-02-16T04:20:00;98420;;;-1.5;84.5
23253;BME280;11795;47.054;15.408;2023-02-16T04:22:00;98420;;;-1.6;84.7
23253;BME280;11795;47.054;15.408;2023-02-16T04:24:00;98420;;;-1.5;84.2
23253;BME280;11795;47.054;15.408;2023-02-16T04:26:00;98420;;;-1.7;84.4
23253;BME280;11795;47.054;15.408;2023-02-16T04:28:00;98420;;;-1.7;84.6
23253;BME280;11795;47.054;15.408;2023-02-16T04:30:00;98420;;;-1.6;84.2
23253;BME280;11795;47.054;15.408;2023-02-16T04:32:00;98410;;;-1.7;84.5
23253;BME280;11795;47.054;15.408;2023-02-16T04:34:00;98410;;;-1.6;84.1
23253;BME280;11795;47.054;15.408;2023-02-16T04:36:00;98410;;;-1.8;84.3
23253;BME280;11795;47.054;15.408;2023-02-16T04:38:00;98400;;;-1.8;84.6
23253;BME280;11795;47.054;15.408;2023-02-16T04:40:00;98400;;;-1.7;83.9
23253;BME280;11795;47.054;15.408;2023-02-16T04:42:00;98400;;;-1.8;84.2
23253;BME280;11795;47.054;15.408;2023-02-16T04:44:00;98400;;;-1.6;83.7
23253;BME280;11795;47.054;15.408;2023-02-16T04:46:00;98410;;;-1.9;84.0
23253;BME280;11795;47.054;15.408;2023-02-16T04:48:00;98410;;;-1.9;84.2
23253;BME280;11795;47.054;15.408;2023-02-16T04:50:00;98400;;;-1.8;83.9
23253;BME280;11795;47.054;15.408;2023-02-16T04:52:03;98400;;;-1.9;84.2
23253;BME280;11795;47.054;15.408;2023-02-16T04:54:00;98400;;;-1.7;83.8
23253;BME280;11795;47.054;15.408;2023-02-16T04:56:00;98400;;;-1.9;83.9
23253;BME280;11795;47.054;15.408;2023-02-16T04:58:00;98400;;;-1.9;84.1
23253;BME280;11795;47.054;15.408;2023-02-16T05:00:00;98400;;;-1.8;83.5
23253;BME280;11795;47.054;15.408;2023-02-16T05:02:00;98400;;;-1.9;83.8
23253;BME280;11795;47.054;15.408;2023-02-16T05:04:00;98400;;;-1.8;83.4
23253;BME280;11795;47.054;15.408;2023-02-16T05:06:00;98400;;;-2.0;83.7
23253;BME280;11795;47.054;15.408;2023-02-16T05:08:00;98400;;;-2.0;83.9
23253;BME280;11795;47.054;15.408;2023-02-16T05:10:00;98400;;;-2.0;83.9
23253;BME280;11795;47.054;15.408;2023-02-16T05:12:10;98400;;;-2.1;84.4
23253;BME280;11795;47.054;15.408;2023-02-16T05:14:16;98400;;;-1.9;84.3
23253;BME280;11795;47.054;15.408;2023-02-16T05:16:00;98400;;;-2.0;84.5
23253;BME280;11795;47.054;15.408;2023-02-16T05:18:00;98400;;;-2.1;84.8
23253;BME280;11795;47.054;15.408;2023-02-16T05:20:01;98400;;;-2.0;84.5
23253;BME280;11795;47.054;15.408;2023-02-16T05:22:00;98400;;;-2.1;84.8
23253;BME280;11795;47.054;15.408;2023-02-16T05:24:02;98400;;;-1.9;84.5
23253;BME280;11795;47.054;15.408;2023-02-16T05:26:00;98390;;;-2.1;84.7
23253;BME280;11795;47.054;15.408;2023-02-16T05:28:00;98400;;;-2.1;84.9
23253;BME280;11795;47.054;15.408;2023-02-16T05:30:00;98400;;;-2.0;84.6
23253;BME280;11795;47.054;15.408;2023-02-16T05:32:00;98400;;;-2.0;84.8
23253;BME280;11795;47.054;15.408;2023-02-16T05:34:00;98400;;;-2.0;84.5
23253;BME280;11795;47.054;15.408;2023-02-16T05:36:00;98400;;;-2.1;84.9
23253;BME280;11795;47.054;15.408;2023-02-16T05:38:00;98390;;;-2.1;85.3
23253;BME280;11795;47.054;15.408;2023-02-16T05:40:00;98400;;;-2.0;85.2
23253;BME280;11795;47.054;15.408;2023-02-16T05:42:00;98400;;;-2.1;85.4
23253;BME280;11795;47.054;15.408;2023-02-16T05:44:02;98390;;;-1.9;85.2
23253;BME280;11795;47.054;15.408;2023-02-16T05:46:05;98400;;;-2.0;85.4
23253;BME280;11795;47.054;15.408;2023-02-16T05:48:00;98400;;;-2.1;85.7
23253;BME280;11795;47.054;15.408;2023-02-16T05:50:00;98400;;;-2.0;85.2
23253;BME280;11795;47.054;15.408;2023-02-16T05:52:00;98400;;;-2.1;85.4
23253;BME280;11795;47.054;15.408;2023-02-16T05:54:00;98400;;;-1.9;85.1
23253;BME280;11795;47.054;15.408;2023-02-16T05:56:00;98410;;;-2.1;85.1
23253;BME280;11795;47.054;15.408;2023-02-16T05:58:00;98410;;;-2.2;85.0
23253;BME280;11795;47.054;15.408;2023-02-16T06:00:01;98420;;;-2.1;84.5
23253;BME280;11795;47.054;15.408;2023-02-16T06:02:00;98420;;;-2.2;84.6
23253;BME280;11795;47.054;15.408;2023-02-16T06:04:00;98420;;;-2.1;84.4
23253;BME280;11795;47.054;15.408;2023-02-16T06:06:02;98410;;;-2.2;84.5
23253;BME280;11795;47.054;15.408;2023-02-16T06:08:01;98410;;;-2.3;84.7
23253;BME280;11795;47.054;15.408;2023-02-16T06:10:00;98420;;;-2.2;84.4
23253;BME280;11795;47.054;15.408;2023-02-16T06:12:00;98420;;;-2.2;84.7
23253;BME280;11795;47.054;15.408;2023-02-16T06:14:03;98430;;;-2.1;84.4
23253;BME280;11795;47.054;15.408;2023-02-16T06:16:00;98430;;;-2.2;84.4
23253;BME280;11795;47.054;15.408;2023-02-16T06:18:02;98430;;;-2.2;84.6
23253;BME280;11795;47.054;15.408;2023-02-16T06:20:00;98430;;;-2.1;84.0
23253;BME280;11795;47.054;15.408;2023-02-16T06:22:00;98430;;;-2.2;84.1
23253;BME280;11795;47.054;15.408;2023-02-16T06:24:00;98430;;;-2.2;84.2
23253;BME280;11795;47.054;15.408;2023-02-16T06:26:00;98430;;;-2.2;84.5
23253;BME280;11795;47.054;15.408;2023-02-16T06:28:00;98430;;;-2.2;84.7
23253;BME280;11795;47.054;15.408;2023-02-16T06:30:01;98440;;;-2.1;84.2
23253;BME280;11795;47.054;15.408;2023-02-16T06:32:00;98430;;;-2.1;84.4
23253;BME280;11795;47.054;15.408;2023-02-16T06:34:03;98440;;;-2.0;84.3
23253;BME280;11795;47.054;15.408;2023-02-16T06:36:00;98440;;;-2.0;84.4
23253;BME280;11795;47.054;15.408;2023-02-16T06:38:00;98440;;;-2.0;84.4
23253;BME280;11795;47.054;15.408;2023-02-16T06:40:00;98450;;;-1.9;83.8
23253;BME280;11795;47.054;15.408;2023-02-16T06:42:00;98450;;;-1.9;84.0
23253;BME280;11795;47.054;15.408;2023-02-16T06:44:01;98450;;;-1.6;83.7
23253;BME280;11795;47.054;15.408;2023-02-16T06:46:01;98450;;;-1.7;83.5
23253;BME280;11795;47.054;15.408;2023-02-16T06:48:00;98450;;;-1.6;83.3
23253;BME280;11795;47.054;15.408;2023-02-16T06:50:00;98450;;;-1.5;82.4
23253;BME280;11795;47.054;15.408;2023-02-16T06:52:00;98450;;;-1.5;82.7
23253;BME280;11795;47.054;15.408;2023-02-16T06:54:00;98450;;;-1.3;82.2
23253;BME280;11795;47.054;15.408;2023-02-16T06:56:00;98450;;;-1.4;81.4
23253;BME280;11795;47.054;15.408;2023-02-16T06:58:00;98450;;;-1.3;81.6
23253;BME280;11795;47.054;15.408;2023-02-16T07:00:00;98450;;;-1.3;80.6
23253;BME280;11795;47.054;15.408;2023-02-16T07:02:00;98450;;;-1.2;80.9
23253;BME280;11795;47.054;15.408;2023-02-16T07:04:00;98450;;;-1.0;80.6
23253;BME280;11795;47.054;15.408;2023-02-16T07:06:00;98450;;;-1.0;80.6
23253;BME280;11795;47.054;15.408;2023-02-16T07:08:00;98450;;;-0.8;80.9
23253;BME280;11795;47.054;15.408;2023-02-16T07:10:02;98440;;;-0.1;80.2
23253;BME280;11795;47.054;15.408;2023-02-16T07:12:00;98440;;;0.8;77.9
23253;BME280;11795;47.054;15.408;2023-02-16T07:14:00;98440;;;2.0;73.9
23253;BME280;11795;47.054;15.408;2023-02-16T07:16:00;98430;;;3.0;68.8
23253;BME280;11795;47.054;15.408;2023-02-16T07:18:00;98430;;;3.8;65.8
23253;BME280;11795;47.054;15.408;2023-02-16T07:20:00;98420;;;4.3;62.7
23253;BME280;11795;47.054;15.408;2023-02-16T07:22:01;98420;;;4.3;61.9
23253;BME280;11795;47.054;15.408;2023-02-16T07:24:00;98420;;;4.4;61.0
23253;BME280;11795;47.054;15.408;2023-02-16T07:26:00;98430;;;4.2;62.3
23253;BME280;11795;47.054;15.408;2023-02-16T07:28:00;98420;;;3.9;62.2
23253;BME280;11795;47.054;15.408;2023-02-16T07:30:00;98430;;;3.9;62.4
23253;BME280;11795;47.054;15.408;2023-02-16T07:32:01;98420;;;4.0;63.4
23253;BME280;11795;47.054;15.408;2023-02-16T07:34:00;98420;;;4.2;62.6
23253;BME280;11795;47.054;15.408;2023-02-16T07:36:00;98430;;;4.2;62.6
23253;BME280;11795;47.054;15.408;2023-02-16T07:38:00;98430;;;4.2;62.6
23253;BME280;11795;47.054;15.408;2023-02-16T07:40:00;98420;;;4.3;62.3
23253;BME280;11795;47.054;15.408;2023-02-16T07:42:00;98420;;;4.3;61.8
23253;BME280;11795;47.054;15.408;2023-02-16T07:44:00;98430;;;4.5;62.1
23253;BME280;11795;47.054;15.408;2023-02-16T07:46:00;98430;;;4.6;61.6
23253;BME280;11795;47.054;15.408;2023-02-16T07:48:01;98430;;;4.9;61.9
23253;BME280;11795;47.054;15.408;2023-02-16T07:50:00;98430;;;5.5;59.9
23253;BME280;11795;47.054;15.408;2023-02-16T07:52:00;98430;;;5.8;58.9
23253;BME280;11795;47.054;15.408;2023-02-16T07:54:00;98420;;;6.6;57.1
23253;BME280;11795;47.054;15.408;2023-02-16T07:56:00;98420;;;7.1;54.9
23253;BME280;11795;47.054;15.408;2023-02-16T07:58:00;98420;;;7.4;54.2
23253;BME280;11795;47.054;15.408;2023-02-16T08:00:01;98420;;;7.7;53.3
23253;BME280;11795;47.054;15.408;2023-02-16T08:02:00;98420;;;7.8;53.4
23253;BME280;11795;47.054;15.408;2023-02-16T08:04:00;98420;;;8.1;52.5
23253;BME280;11795;47.054;15.408;2023-02-16T08:06:01;98430;;;8.0;53.1
23253;BME280;11795;47.054;15.408;2023-02-16T08:08:00;98420;;;7.8;53.7
23253;BME280;11795;47.054;15.408;2023-02-16T08:10:00;98420;;;8.2;53.6
23253;BME280;11795;47.054;15.408;2023-02-16T08:12:00;98430;;;8.4;53.3
23253;BME280;11795;47.054;15.408;2023-02-16T08:14:00;98420;;;8.4;52.7
23253;BME280;11795;47.054;15.408;2023-02-16T08:16:00;98420;;;8.5;51.8
23253;BME280;11795;47.054;15.408;2023-02-16T08:18:00;98420;;;8.6;51.8
23253;BME280;11795;47.054;15.408;2023-02-16T08:20:01;98420;;;8.7;51.6
23253;BME280;11795;47.054;15.408;2023-02-16T08:22:02;98420;;;8.7;51.8
23253;BME280;11795;47.054;15.408;2023-02-16T08:24:02;98430;;;9.0;51.5
23253;BME280;11795;47.054;15.408;2023-02-16T08:26:06;98420;;;8.9;51.7
23253;BME280;11795;47.054;15.408;2023-02-16T08:28:00;98430;;;8.9;51.3
23253;BME280;11795;47.054;15.408;2023-02-16T08:30:00;98430;;;9.1;51.0
23253;BME280;11795;47.054;15.408;2023-02-16T08:32:01;98430;;;8.9;51.0
23253;BME280;11795;47.054;15.408;2023-02-16T08:34:02;98430;;;9.3;50.6
23253;BME280;11795;47.054;15.408;2023-02-16T08:36:02;98430;;;9.0;50.0
23253;BME280;11795;47.054;15.408;2023-02-16T08:38:03;98430;;;9.0;50.9
23253;BME280;11795;47.054;15.408;2023-02-16T08:40:02;98430;;;9.1;50.1
23253;BME280;11795;47.054;15.408;2023-02-16T08:42:00;98430;;;9.1;51.0
23253;BME280;11795;47.054;15.408;2023-02-16T08:44:00;98430;;;9.3;50.4
23253;BME280;11795;47.054;15.408;2023-02-16T08:46:00;98430;;;9.2;49.3
23253;BME280;11795;47.054;15.408;2023-02-16T08:48:01;98430;;;8.9;50.5
23253;BME280;11795;47.054;15.408;2023-02-16T08:50:00;98430;;;8.9;50.7
23253;BME280;11795;47.054;15.408;2023-02-16T08:52:01;98430;;;8.8;51.2
23253;BME280;11795;47.054;15.408;2023-02-16T08:54:01;98430;;;8.9;50.8
23253;BME280;11795;47.054;15.408;2023-02-16T08:56:02;98430;;;8.8;51.5
23253;BME280;11795;47.054;15.408;2023-02-16T08:58:00;98430;;;8.4;52.3
23253;BME280;11795;47.054;15.408;2023-02-16T09:00:10;98430;;;8.4;52.7
23253;BME280;11795;47.054;15.408;2023-02-16T09:02:01;98430;;;8.5;52.8
23253;BME280;11795;47.054;15.408;2023-02-16T09:04:00;98420;;;8.8;52.5
23253;BME280;11795;47.054;15.408;2023-02-16T09:06:02;98430;;;8.9;52.9
23253;BME280;11795;47.054;15.408;2023-02-16T09:08:00;98420;;;9.2;52.0
23253;BME280;11795;47.054;15.408;2023-02-16T09:10:00;98420;;;9.4;51.1
23253;BME280;11795;47.054;15.408;2023-02-16T09:12:00;98420;;;9.2;50.9
23253;BME280;11795;47.054;15.408;2023-02-16T09:14:00;98420;;;9.3;51.1
23253;BME280;11795;47.054;15.408;2023-02-16T09:16:01;98420;;;9.1;52.0
23253;BME280;11795;47.054;15.408;2023-02-16T09:18:02;98420;;;9.2;52.2
23253;BME280;11795;47.054;15.408;2023-02-16T09:20:01;98420;;;9.6;51.7
23253;BME280;11795;47.054;15.408;2023-02-16T09:22:00;98420;;;9.7;51.2
23253;BME280;11795;47.054;15.408;2023-02-16T09:24:02;98420;;;9.8;49.6
23253;BME280;11795;47.054;15.408;2023-02-16T09:26:01;98420;;;9.6;50.9
23253;BME280;11795;47.054;15.408;2023-02-16T09:28:00;98420;;;9.6;51.2
23253;BME280;11795;47.054;15.408;2023-02-16T09:30:00;98410;;;10.0;51.0
23253;BME280;11795;47.054;15.408;2023-02-16T09:32:01;98410;;;10.1;50.6
23253;BME280;11795;47.054;15.408;2023-02-16T09:34:01;98410;;;10.2;49.3
23253;BME280;11795;47.054;15.408;2023-02-16T09:36:02;98410;;;10.0;49.7
23253;BME280;11795;47.054;15.408;2023-02-16T09:38:01;98420;;;10.0;50.7
23253;BME280;11795;47.054;15.408;2023-02-16T09:40:00;98420;;;10.3;49.6
23253;BME280;11795;47.054;15.408;2023-02-16T09:42:09;98410;;;10.0;49.2
23253;BME280;11795;47.054;15.408;2023-02-16T09:44:07;98410;;;9.8;49.6
23253;BME280;11795;47.054;15.408;2023-02-16T09:46:01;98410;;;9.9;50.5
23253;BME280;11795;47.054;15.408;2023-02-16T09:48:01;98410;;;9.9;49.2
23253;BME280;11795;47.054;15.408;2023-02-16T09:50:03;98410;;;9.5;50.9
23253;BME280;11795;47.054;15.408;2023-02-16T09:52:04;98410;;;9.7;51.7
23253;BME280;11795;47.054;15.408;2023-02-16T09:54:11;98410;;;10.2;51.0
23253;BME280;11795;47.054;15.408;2023-02-16T09:56:11;98410;;;10.3;49.9
23253;BME280;11795;47.054;15.408;2023-02-16T09:58:05;98420;;;10.4;49.3
23253;BME280;11795;47.054;15.408;2023-02-16T10:00:03;98410;;;10.4;49.7
23253;BME280;11795;47.054;15.408;2023-02-16T10:04:15;98410;;;10.6;48.8
23253;BME280;11795;47.054;15.408;2023-02-16T10:06:08;98420;;;10.7;49.0
23253;BME280;11795;47.054;15.408;2023-02-16T10:08:04;98420;;;10.9;48.5
23253;BME280;11795;47.054;15.408;2023-02-16T10:10:02;98420;;;11.0;47.9
23253;BME280;11795;47.054;15.408;2023-02-16T10:12:03;98420;;;10.9;47.4
23253;BME280;11795;47.054;15.408;2023-02-16T10:14:05;98410;;;11.0;48.0
23253;BME280;11795;47.054;15.408;2023-02-16T10:16:03;98410;;;11.1;47.6
23253;BME280;11795;47.054;15.408;2023-02-16T10:18:03;98410;;;11.1;47.5
23253;BME280;11795;47.054;15.408;2023-02-16T10:20:03;98410;;;11.4;47.7
23253;BME280;11795;47.054;15.408;2023-02-16T10:22:03;98410;;;11.3;47.0
23253;BME280;11795;47.054;15.408;2023-02-16T10:24:02;98400;;;11.4;47.8
23253;BME280;11795;47.054;15.408;2023-02-16T10:26:05;98400;;;11.1;47.4
23253;BME280;11795;47.054;15.408;2023-02-16T10:28:09;98400;;;11.3;48.4
23253;BME280;11795;47.054;15.408;2023-02-16T10:30:00;98400;;;11.6;47.1
23253;BME280;11795;47.054;15.408;2023-02-16T10:32:11;98400;;;11.7;46.1
23253;BME280;11795;47.054;15.408;2023-02-16T10:34:13;98400;;;11.9;46.4
23253;BME280;11795;47.054;15.408;2023-02-16T10:36:07;98390;;;12.1;45.9
23253;BME280;11795;47.054;15.408;2023-02-16T10:38:05;98390;;;12.2;45.2
23253;BME280;11795;47.054;15.408;2023-02-16T10:40:11;98390;;;12.3;45.4
23253;BME280;11795;47.054;15.408;2023-02-16T10:42:05;98390;;;12.0;45.1
23253;BME280;11795;47.054;15.408;2023-02-16T10:44:04;98390;;;12.2;45.6
23253;BME280;11795;47.054;15.408;2023-02-16T10:46:01;98390;;;12.4;45.2
23253;BME280;11795;47.054;15.408;2023-02-16T10:48:00;98390;;;12.6;45.3
23253;BME280;11795;47.054;15.408;2023-02-16T10:50:00;98390;;;13.1;45.2
23253;BME280;11795;47.054;15.408;2023-02-16T10:52:01;98390;;;13.3;43.8
23253;BME280;11795;47.054;15.408;2023-02-16T10:54:02;98390;;;13.4;43.4
23253;BME280;11795;47.054;15.408;2023-02-16T10:56:01;98380;;;13.2;43.3
23253;BME280;11795;47.054;15.408;2023-02-16T10:58:01;98380;;;13.3;43.1
23253;BME280;11795;47.054;15.408;2023-02-16T11:00:03;98380;;;13.6;43.4
23253;BME280;11795;47.054;15.408;2023-02-16T11:02:08;98380;;;13.5;42.9
23253;BME280;11795;47.054;15.408;2023-02-16T11:04:00;98370;;;13.7;42.8
23253;BME280;11795;47.054;15.408;2023-02-16T11:06:12;98370;;;13.8;42.5
23253;BME280;11795;47.054;15.408;2023-02-16T11:08:01;98360;;;13.6;41.9
23253;BME280;11795;47.054;15.408;2023-02-16T11:10:17;98360;;;13.8;41.6
23253;BME280;11795;47.054;15.408;2023-02-16T11:12:01;98350;;;13.8;42.3
23253;BME280;11795;47.054;15.408;2023-02-16T11:14:02;98350;;;14.1;42.9